sensor_id;sensor_type;location;lat;lon;timestamp;pressure;altitude;pressure_sealevel;temperature;humidity
7586;BME280;12459;42.646;23.292;2023-05-19T00:12:57;93832.19;;;12.86;100.00
7586;BME280;12459;42.646;23.292;2023-05-19T00:27:59;93896.03;;;13.28;100.00
7586;BME280;12459;42.646;23.292;2023-05-19T00:43:01;93772.22;;;12.42;100.00
7586;BME280;12459;42.646;23.292;2023-05-19T00:58:04;93887.72;;;12.96;100.00
7586;BME280;12459;42.646;23.292;2023-05-19T01:13:06;93909.66;;;12.94;100.00
7586;BME280;12459;42.646;23.292;2023-05-19T01:43:17;93896.84;;;12.78;100.00
7586;BME280;12459;42.646;23.292;2023-05-19T02:13:23;93743.75;;;11.71;100.00
7586;BME280;12459;42.646;23.292;2023-05-19T02:28:30;93714.56;;;11.73;100.00
7586;BME280;12459;42.646;23.292;2023-05-19T02:43:31;93767.81;;;12.05;100.00
7586;BME280;12459;42.646;23.292;2023-05-19T02:58:33;93908.19;;;12.90;100.00
7586;BME280;12459;42.646;23.292;2023-05-19T03:13:35;93841.38;;;12.38;100.00
7586;BME280;12459;42.646;23.292;2023-05-19T03:28:37;93658.19;;;11.19;100.00
7586;BME280;12459;42.646;23.292;2023-05-19T03:43:38;93726.41;;;11.75;100.00
7586;BME280;12459;42.646;23.292;2023-05-19T03:58:40;93866.09;;;12.79;100.00
7586;BME280;12459;42.646;23.292;2023-05-19T04:13:43;93777.59;;;12.42;100.00
7586;BME280;12459;42.646;23.292;2023-05-19T04:28:45;93958.50;;;13.63;100.00
7586;BME280;12459;42.646;23.292;2023-05-19T04:43:48;93963.00;;;14.09;100.00
7586;BME280;12459;42.646;23.292;2023-05-19T04:58:50;93928.84;;;14.42;100.00
7586;BME280;12459;42.646;23.292;2023-05-19T05:13:54;93848.38;;;14.89;100.00
7586;BME280;12459;42.646;23.292;2023-05-19T05:28:58;93957.16;;;15.96;100.00
7586;BME280;12459;42.646;23.292;2023-05-19T05:44:01;93893.88;;;15.81;100.00
7586;BME280;12459;42.646;23.292;2023-05-19T05:59:03;93936.94;;;16.55;100.00
7586;BME280;12459;42.646;23.292;2023-05-19T06:14:05;93914.47;;;16.84;100.00
7586;BME280;12459;42.646;23.292;2023-05-19T06:29:07;93998.84;;;17.80;100.00
7586;BME280;12459;42.646;23.292;2023-05-19T06:44:08;93971.81;;;17.30;98.22
7586;BME280;12459;42.646;23.292;2023-05-19T06:59:10;93919.31;;;17.14;98.12
7586;BME280;12459;42.646;23.292;2023-05-19T07:14:12;93908.97;;;17.35;89.42
7586;BME280;12459;42.646;23.292;2023-05-19T07:29:13;94035.06;;;17.86;92.78
7586;BME280;12459;42.646;23.292;2023-05-19T07:44:15;93952.91;;;17.99;88.53
7586;BME280;12459;42.646;23.292;2023-05-19T07:59:17;94016.06;;;18.43;89.12
7586;BME280;12459;42.646;23.292;2023-05-19T08:14:19;93939.09;;;18.06;88.31
7586;BME280;12459;42.646;23.292;2023-05-19T08:29:23;93949.63;;;18.57;86.90
7586;BME280;12459;42.646;23.292;2023-05-19T08:44:25;94015.47;;;19.23;85.46
7586;BME280;12459;42.646;23.292;2023-05-19T08:59:27;94012.84;;;19.10;82.18
7586;BME280;12459;42.646;23.292;2023-05-19T09:14:29;94003.59;;;19.48;83.68
7586;BME280;12459;42.646;23.292;2023-05-19T09:29:31;93976.28;;;19.51;81.54
7586;BME280;12459;42.646;23.292;2023-05-19T09:44:34;93894.97;;;19.07;77.17
7586;BME280;12459;42.646;23.292;2023-05-19T09:59:35;93969.13;;;20.03;76.76
7586;BME280;12459;42.646;23.292;2023-05-19T10:14:39;93972.72;;;20.55;73.04
7586;BME280;12459;42.646;23.292;2023-05-19T10:29:44;93917.81;;;20.47;70.86
7586;BME280;12459;42.646;23.292;2023-05-19T10:45:04;93891.69;;;20.83;72.32
7586;BME280;12459;42.646;23.292;2023-05-19T11:00:29;93956.34;;;21.48;70.34
7586;BME280;12459;42.646;23.292;2023-05-19T11:15:35;93866.81;;;20.57;64.31
7586;BME280;12459;42.646;23.292;2023-05-19T11:30:40;93839.94;;;20.83;63.86
7586;BME280;12459;42.646;23.292;2023-05-19T11:45:42;93853.38;;;20.86;62.31
7586;BME280;12459;42.646;23.292;2023-05-19T12:00:44;94008.41;;;20.02;84.18
7586;BME280;12459;42.646;23.292;2023-05-19T12:15:50;94024.91;;;18.34;85.82
7586;BME280;12459;42.646;23.292;2023-05-19T12:30:52;93978.03;;;17.05;100.00
7586;BME280;12459;42.646;23.292;2023-05-19T12:45:54;93944.78;;;16.91;100.00
7586;BME280;12459;42.646;23.292;2023-05-19T13:00:57;93801.91;;;16.23;92.28
7586;BME280;12459;42.646;23.292;2023-05-19T13:16:01;93874.56;;;17.44;87.99
7586;BME280;12459;42.646;23.292;2023-05-19T13:31:02;93909.06;;;18.00;82.97
7586;BME280;12459;42.646;23.292;2023-05-19T13:46:04;93915.84;;;18.27;80.20
7586;BME280;12459;42.646;23.292;2023-05-19T14:01:06;93941.81;;;18.59;80.39
7586;BME280;12459;42.646;23.292;2023-05-19T14:16:08;93830.47;;;17.66;82.04
7586;BME280;12459;42.646;23.292;2023-05-19T14:31:11;93861.59;;;18.27;76.83
7586;BME280;12459;42.646;23.292;2023-05-19T14:46:13;93943.59;;;19.24;72.38
7586;BME280;12459;42.646;23.292;2023-05-19T15:01:15;93872.19;;;18.65;76.72
7586;BME280;12459;42.646;23.292;2023-05-19T15:16:16;93904.94;;;19.10;70.90
7586;BME280;12459;42.646;23.292;2023-05-19T15:31:18;93930.03;;;19.42;71.77
7586;BME280;12459;42.646;23.292;2023-05-19T15:46:20;93926.25;;;19.30;71.03
7586;BME280;12459;42.646;23.292;2023-05-19T16:01:23;93941.50;;;19.37;73.28
7586;BME280;12459;42.646;23.292;2023-05-19T16:16:25;93831.97;;;18.10;78.83
7586;BME280;12459;42.646;23.292;2023-05-19T16:31:27;93973.78;;;18.76;83.12
7586;BME280;12459;42.646;23.292;2023-05-19T16:46:29;93992.91;;;18.07;85.29
7586;BME280;12459;42.646;23.292;2023-05-19T17:01:32;94002.00;;;18.35;81.55
7586;BME280;12459;42.646;23.292;2023-05-19T17:16:34;93939.44;;;17.73;82.13
7586;BME280;12459;42.646;23.292;2023-05-19T17:31:36;93944.00;;;17.76;81.88
7586;BME280;12459;42.646;23.292;2023-05-19T17:46:38;94024.84;;;17.91;83.36
7586;BME280;12459;42.646;23.292;2023-05-19T18:01:40;93981.97;;;17.51;89.45
7586;BME280;12459;42.646;23.292;2023-05-19T18:16:42;94022.25;;;17.62;90.26
7586;BME280;12459;42.646;23.292;2023-05-19T18:31:44;93933.19;;;16.78;97.44
7586;BME280;12459;42.646;23.292;2023-05-19T18:46:46;93810.81;;;15.69;93.63
7586;BME280;12459;42.646;23.292;2023-05-19T19:01:48;93767.81;;;15.46;89.48
7586;BME280;12459;42.646;23.292;2023-05-19T19:16:52;93993.81;;;16.68;91.78
7586;BME280;12459;42.646;23.292;2023-05-19T19:31:54;93979.47;;;16.55;88.82
7586;BME280;12459;42.646;23.292;2023-05-19T19:46:55;93959.41;;;16.27;87.55
7586;BME280;12459;42.646;23.292;2023-05-19T20:01:57;93915.50;;;15.81;94.03
7586;BME280;12459;42.646;23.292;2023-05-19T20:16:59;93985.25;;;15.54;99.00
7586;BME280;12459;42.646;23.292;2023-05-19T20:32:01;94104.94;;;16.32;99.48
7586;BME280;12459;42.646;23.292;2023-05-19T20:47:02;94109.56;;;15.86;100.00
7586;BME280;12459;42.646;23.292;2023-05-19T21:02:04;94102.47;;;15.92;100.00
7586;BME280;12459;42.646;23.292;2023-05-19T21:17:08;94013.38;;;15.40;100.00
7586;BME280;12459;42.646;23.292;2023-05-19T21:32:10;94045.84;;;15.20;100.00
7586;BME280;12459;42.646;23.292;2023-05-19T21:47:11;94056.97;;;15.06;100.00
7586;BME280;12459;42.646;23.292;2023-05-19T22:02:13;94077.47;;;15.04;100.00
7586;BME280;12459;42.646;23.292;2023-05-19T22:17:16;94115.75;;;14.98;100.00
7586;BME280;12459;42.646;23.292;2023-05-19T22:32:18;93935.31;;;13.69;100.00
7586;BME280;12459;42.646;23.292;2023-05-19T22:47:20;93838.38;;;12.83;100.00
7586;BME280;12459;42.646;23.292;2023-05-19T23:02:22;94059.22;;;14.32;100.00
7586;BME280;12459;42.646;23.292;2023-05-19T23:17:23;93883.75;;;13.27;100.00
7586;BME280;12459;42.646;23.292;2023-05-19T23:32:26;93926.25;;;13.59;100.00
7586;BME280;12459;42.646;23.292;2023-05-19T23:47:27;94049.13;;;14.16;100.00
